createdAt,value
2019-05-26T00:06:22.802Z,99
2019-05-26T00:16:22.823Z,99
2019-05-26T00:26:22.874Z,99
2019-05-26T00:36:22.877Z,99
2019-05-26T00:46:22.866Z,99
2019-05-26T00:56:22.894Z,99
2019-05-26T01:06:22.912Z,99
2019-05-26T01:16:22.953Z,99
2019-05-26T01:26:23.035Z,99
2019-05-26T01:36:22.961Z,99
2019-05-26T01:46:22.981Z,99
2019-05-26T01:56:23.002Z,99
2019-05-26T02:06:23.021Z,99
2019-05-26T02:16:23.038Z,99
2019-05-26T02:27:08.838Z,99
2019-05-26T02:36:23.071Z,99
2019-05-26T02:46:23.122Z,99
2019-05-26T02:56:23.124Z,99
2019-05-26T03:06:23.829Z,99
2019-05-26T03:09:46.239Z,99
2019-05-26T03:16:23.154Z,99
2019-05-26T03:26:23.155Z,99
2019-05-26T03:36:23.174Z,99
2019-05-26T03:46:23.190Z,99
2019-05-26T03:56:23.207Z,99
2019-05-26T04:06:23.315Z,99
2019-05-26T04:16:23.237Z,99
2019-05-26T04:26:23.324Z,99
2019-05-26T04:36:23.421Z,99
2019-05-26T04:46:23.370Z,99
2019-05-26T04:56:23.378Z,99
2019-05-26T05:06:23.361Z,99
2019-05-26T05:16:23.533Z,99
2019-05-26T05:26:23.383Z,99
2019-05-26T05:36:23.411Z,99
2019-05-26T05:46:23.582Z,99
2019-05-26T05:56:23.455Z,99
2019-05-26T06:06:23.470Z,99
2019-05-26T06:16:23.509Z,99
2019-05-26T06:26:23.513Z,99
2019-05-26T06:36:23.539Z,99
2019-05-26T06:46:23.573Z,99
2019-05-26T06:56:23.584Z,99
2019-05-26T07:06:23.654Z,99
2019-05-26T07:16:36.711Z,99
2019-05-26T07:26:23.651Z,99
2019-05-26T07:36:53.175Z,99
2019-05-26T07:46:23.678Z,99
2019-05-26T07:56:23.847Z,99
2019-05-26T08:06:23.724Z,99
2019-05-26T08:16:23.743Z,99
2019-05-26T08:26:23.750Z,99
2019-05-26T08:36:23.748Z,99
2019-05-26T08:46:23.804Z,99
2019-05-26T08:56:23.982Z,99
2019-05-26T09:06:23.831Z,99
2019-05-26T09:16:23.872Z,99
2019-05-26T09:26:23.939Z,87
2019-05-26T09:36:23.914Z,79
2019-05-26T09:46:23.934Z,58
2019-05-26T09:56:23.953Z,52
2019-05-26T10:06:23.968Z,50
2019-05-26T10:16:23.974Z,51
2019-05-26T10:26:24.015Z,50
2019-05-26T10:36:24.057Z,48
2019-05-26T10:46:24.057Z,45
2019-05-26T10:56:24.074Z,49
2019-05-26T11:06:24.470Z,53
2019-05-26T11:16:24.159Z,53
2019-05-26T11:26:24.113Z,53
2019-05-26T11:36:24.230Z,53
2019-05-26T11:46:24.292Z,55
2019-05-26T11:56:25.453Z,56
2019-05-26T12:06:24.200Z,59
2019-05-26T12:16:24.198Z,59
2019-05-26T12:26:24.261Z,59
2019-05-26T12:36:24.340Z,63
2019-05-26T12:46:25.537Z,63
2019-05-26T12:56:24.699Z,61
2019-05-26T13:06:24.921Z,61
2019-05-26T13:16:24.336Z,60
2019-05-26T13:26:24.334Z,61
2019-05-26T13:36:24.331Z,62
2019-05-26T13:46:24.356Z,64
2019-05-26T13:56:24.429Z,67
2019-05-26T14:06:24.388Z,64
2019-05-26T14:16:24.973Z,64
2019-05-26T14:26:24.439Z,63
2019-05-26T14:33:08.726Z,63
2019-05-26T14:36:24.613Z,63
2019-05-26T14:46:24.554Z,63
2019-05-26T14:56:24.489Z,63
2019-05-26T15:06:24.539Z,64
2019-05-26T15:16:24.530Z,68
2019-05-26T15:26:24.620Z,71
2019-05-26T15:36:24.658Z,74
2019-05-26T15:46:25.603Z,77
2019-05-26T15:56:24.669Z,78
2019-05-26T16:06:24.690Z,81
2019-05-26T16:16:32.440Z,86
2019-05-26T16:26:24.646Z,92
2019-05-26T16:36:25.655Z,97
2019-05-26T16:46:24.840Z,99
2019-05-26T16:56:24.740Z,99
2019-05-26T17:06:27.786Z,99
2019-05-26T17:16:24.731Z,99
2019-05-26T17:26:24.739Z,99
2019-05-26T17:36:24.765Z,99
2019-05-26T17:46:24.781Z,99
2019-05-26T17:56:24.842Z,99
2019-05-26T18:06:25.174Z,99
2019-05-26T18:16:25.512Z,99
2019-05-26T18:26:24.966Z,99
2019-05-26T18:36:24.872Z,99
2019-05-26T18:46:24.901Z,99
2019-05-26T18:56:24.911Z,99
2019-05-26T19:06:24.978Z,99
